sensor_id;sensor_type;location;lat;lon;timestamp;P1;durP1;ratioP1;P2;durP2;ratioP2
15905;SDS011;8051;50.820;4.884;2023-04-25T00:01:46;23.00;;;21.27;;
15905;SDS011;8051;50.820;4.884;2023-04-25T00:04:14;23.80;;;21.43;;
15905;SDS011;8051;50.820;4.884;2023-04-25T00:06:41;24.20;;;22.03;;
15905;SDS011;8051;50.820;4.884;2023-04-25T00:09:08;25.33;;;23.13;;
15905;SDS011;8051;50.820;4.884;2023-04-25T00:11:37;25.30;;;23.07;;
15905;SDS011;8051;50.820;4.884;2023-04-25T00:14:05;23.27;;;21.00;;
15905;SDS011;8051;50.820;4.884;2023-04-25T00:16:33;23.47;;;21.37;;
15905;SDS011;8051;50.820;4.884;2023-04-25T00:19:00;23.93;;;21.40;;
15905;SDS011;8051;50.820;4.884;2023-04-25T00:21:28;24.60;;;22.40;;
15905;SDS011;8051;50.820;4.884;2023-04-25T00:23:56;23.63;;;21.63;;
15905;SDS011;8051;50.820;4.884;2023-04-25T00:26:24;23.23;;;20.40;;
15905;SDS011;8051;50.820;4.884;2023-04-25T00:28:53;22.90;;;20.63;;
15905;SDS011;8051;50.820;4.884;2023-04-25T00:31:20;23.10;;;21.03;;
15905;SDS011;8051;50.820;4.884;2023-04-25T00:33:48;24.33;;;22.20;;
15905;SDS011;8051;50.820;4.884;2023-04-25T00:36:15;25.03;;;22.60;;
15905;SDS011;8051;50.820;4.884;2023-04-25T00:38:43;24.03;;;21.53;;
15905;SDS011;8051;50.820;4.884;2023-04-25T00:41:10;24.80;;;22.43;;
15905;SDS011;8051;50.820;4.884;2023-04-25T00:43:39;24.43;;;22.17;;
15905;SDS011;8051;50.820;4.884;2023-04-25T00:46:08;24.53;;;22.33;;
15905;SDS011;8051;50.820;4.884;2023-04-25T00:48:36;24.63;;;22.23;;
15905;SDS011;8051;50.820;4.884;2023-04-25T00:51:03;30.83;;;23.33;;
15905;SDS011;8051;50.820;4.884;2023-04-25T00:53:31;24.50;;;22.13;;
15905;SDS011;8051;50.820;4.884;2023-04-25T00:55:59;26.50;;;23.47;;
15905;SDS011;8051;50.820;4.884;2023-04-25T00:58:26;24.40;;;22.13;;
15905;SDS011;8051;50.820;4.884;2023-04-25T01:00:54;24.20;;;22.00;;
15905;SDS011;8051;50.820;4.884;2023-04-25T01:03:25;24.80;;;22.17;;
15905;SDS011;8051;50.820;4.884;2023-04-25T01:05:53;24.53;;;21.40;;
15905;SDS011;8051;50.820;4.884;2023-04-25T01:08:21;28.07;;;22.23;;
15905;SDS011;8051;50.820;4.884;2023-04-25T01:10:51;24.30;;;21.67;;
15905;SDS011;8051;50.820;4.884;2023-04-25T01:13:18;24.23;;;21.87;;
15905;SDS011;8051;50.820;4.884;2023-04-25T01:15:46;24.97;;;22.43;;
15905;SDS011;8051;50.820;4.884;2023-04-25T01:18:14;25.93;;;21.90;;
15905;SDS011;8051;50.820;4.884;2023-04-25T01:20:43;25.30;;;22.80;;
15905;SDS011;8051;50.820;4.884;2023-04-25T01:23:13;28.90;;;22.53;;
15905;SDS011;8051;50.820;4.884;2023-04-25T01:25:41;28.63;;;23.10;;
15905;SDS011;8051;50.820;4.884;2023-04-25T01:28:09;29.67;;;22.47;;
15905;SDS011;8051;50.820;4.884;2023-04-25T01:30:36;30.57;;;21.73;;
15905;SDS011;8051;50.820;4.884;2023-04-25T01:33:05;28.20;;;22.60;;
15905;SDS011;8051;50.820;4.884;2023-04-25T01:35:34;25.40;;;22.70;;
15905;SDS011;8051;50.820;4.884;2023-04-25T01:38:01;25.47;;;21.37;;
15905;SDS011;8051;50.820;4.884;2023-04-25T01:40:30;25.33;;;21.17;;
15905;SDS011;8051;50.820;4.884;2023-04-25T01:43:00;26.60;;;23.23;;
15905;SDS011;8051;50.820;4.884;2023-04-25T01:45:27;24.73;;;22.33;;
15905;SDS011;8051;50.820;4.884;2023-04-25T01:47:55;24.03;;;21.07;;
15905;SDS011;8051;50.820;4.884;2023-04-25T01:50:24;24.87;;;21.30;;
15905;SDS011;8051;50.820;4.884;2023-04-25T01:52:52;25.30;;;20.20;;
15905;SDS011;8051;50.820;4.884;2023-04-25T01:55:20;30.27;;;19.43;;
15905;SDS011;8051;50.820;4.884;2023-04-25T01:57:49;25.83;;;21.03;;
15905;SDS011;8051;50.820;4.884;2023-04-25T02:00:17;23.50;;;20.40;;
15905;SDS011;8051;50.820;4.884;2023-04-25T02:02:46;20.63;;;18.87;;
15905;SDS011;8051;50.820;4.884;2023-04-25T02:05:13;23.90;;;20.30;;
15905;SDS011;8051;50.820;4.884;2023-04-25T02:07:41;30.63;;;21.10;;
15905;SDS011;8051;50.820;4.884;2023-04-25T02:10:09;21.00;;;18.90;;
15905;SDS011;8051;50.820;4.884;2023-04-25T02:12:36;30.43;;;19.83;;
15905;SDS011;8051;50.820;4.884;2023-04-25T02:15:06;38.20;;;20.40;;
15905;SDS011;8051;50.820;4.884;2023-04-25T02:17:34;23.90;;;18.53;;
15905;SDS011;8051;50.820;4.884;2023-04-25T02:20:01;24.33;;;20.33;;
15905;SDS011;8051;50.820;4.884;2023-04-25T02:22:29;24.30;;;19.17;;
15905;SDS011;8051;50.820;4.884;2023-04-25T02:24:56;22.93;;;19.17;;
15905;SDS011;8051;50.820;4.884;2023-04-25T02:27:24;25.20;;;20.53;;
15905;SDS011;8051;50.820;4.884;2023-04-25T02:29:51;26.03;;;21.40;;
15905;SDS011;8051;50.820;4.884;2023-04-25T02:32:20;26.87;;;21.70;;
15905;SDS011;8051;50.820;4.884;2023-04-25T02:34:47;25.67;;;20.70;;
15905;SDS011;8051;50.820;4.884;2023-04-25T02:37:15;31.13;;;20.77;;
15905;SDS011;8051;50.820;4.884;2023-04-25T02:39:42;28.03;;;20.30;;
15905;SDS011;8051;50.820;4.884;2023-04-25T02:42:09;29.20;;;20.23;;
15905;SDS011;8051;50.820;4.884;2023-04-25T02:44:37;24.03;;;19.10;;
15905;SDS011;8051;50.820;4.884;2023-04-25T02:47:04;30.47;;;20.93;;
15905;SDS011;8051;50.820;4.884;2023-04-25T02:49:33;25.27;;;20.87;;
15905;SDS011;8051;50.820;4.884;2023-04-25T02:52:01;23.33;;;21.20;;
15905;SDS011;8051;50.820;4.884;2023-04-25T02:54:28;33.63;;;22.33;;
15905;SDS011;8051;50.820;4.884;2023-04-25T02:56:55;33.37;;;21.60;;
15905;SDS011;8051;50.820;4.884;2023-04-25T02:59:23;25.53;;;21.67;;
15905;SDS011;8051;50.820;4.884;2023-04-25T03:01:50;28.53;;;21.87;;
15905;SDS011;8051;50.820;4.884;2023-04-25T03:04:17;27.40;;;21.87;;
15905;SDS011;8051;50.820;4.884;2023-04-25T03:06:47;22.07;;;19.20;;
15905;SDS011;8051;50.820;4.884;2023-04-25T03:09:14;27.10;;;19.03;;
15905;SDS011;8051;50.820;4.884;2023-04-25T03:11:43;29.73;;;21.10;;
15905;SDS011;8051;50.820;4.884;2023-04-25T03:14:11;25.10;;;20.90;;
15905;SDS011;8051;50.820;4.884;2023-04-25T03:16:39;31.43;;;22.20;;
15905;SDS011;8051;50.820;4.884;2023-04-25T03:19:06;30.60;;;21.40;;
15905;SDS011;8051;50.820;4.884;2023-04-25T03:21:34;26.77;;;21.67;;
15905;SDS011;8051;50.820;4.884;2023-04-25T03:24:05;33.53;;;21.47;;
15905;SDS011;8051;50.820;4.884;2023-04-25T03:26:33;23.03;;;20.70;;
15905;SDS011;8051;50.820;4.884;2023-04-25T03:29:00;24.60;;;21.53;;
15905;SDS011;8051;50.820;4.884;2023-04-25T03:31:28;26.67;;;20.20;;
15905;SDS011;8051;50.820;4.884;2023-04-25T03:33:55;26.20;;;20.90;;
15905;SDS011;8051;50.820;4.884;2023-04-25T03:36:23;27.77;;;21.07;;
15905;SDS011;8051;50.820;4.884;2023-04-25T03:38:50;28.97;;;21.53;;
15905;SDS011;8051;50.820;4.884;2023-04-25T03:41:19;26.70;;;20.70;;
15905;SDS011;8051;50.820;4.884;2023-04-25T03:43:46;28.20;;;19.70;;
15905;SDS011;8051;50.820;4.884;2023-04-25T03:46:14;24.47;;;20.00;;
15905;SDS011;8051;50.820;4.884;2023-04-25T03:48:41;35.23;;;21.67;;
15905;SDS011;8051;50.820;4.884;2023-04-25T03:51:09;31.13;;;20.80;;
15905;SDS011;8051;50.820;4.884;2023-04-25T03:53:37;32.17;;;20.73;;
15905;SDS011;8051;50.820;4.884;2023-04-25T03:56:04;23.13;;;19.43;;
15905;SDS011;8051;50.820;4.884;2023-04-25T03:58:34;23.53;;;19.77;;
15905;SDS011;8051;50.820;4.884;2023-04-25T04:01:01;26.53;;;20.37;;
15905;SDS011;8051;50.820;4.884;2023-04-25T04:03:32;23.17;;;19.33;;
15905;SDS011;8051;50.820;4.884;2023-04-25T04:06:01;33.03;;;23.67;;
15905;SDS011;8051;50.820;4.884;2023-04-25T04:08:29;30.10;;;23.20;;
15905;SDS011;8051;50.820;4.884;2023-04-25T04:10:56;27.90;;;20.93;;
15905;SDS011;8051;50.820;4.884;2023-04-25T04:13:25;28.17;;;23.60;;
15905;SDS011;8051;50.820;4.884;2023-04-25T04:15:54;30.20;;;25.00;;
15905;SDS011;8051;50.820;4.884;2023-04-25T04:18:22;36.30;;;22.63;;
15905;SDS011;8051;50.820;4.884;2023-04-25T04:20:50;33.03;;;23.87;;
15905;SDS011;8051;50.820;4.884;2023-04-25T04:23:17;31.77;;;24.37;;
15905;SDS011;8051;50.820;4.884;2023-04-25T04:25:45;37.03;;;24.23;;
15905;SDS011;8051;50.820;4.884;2023-04-25T04:28:13;31.10;;;24.73;;
15905;SDS011;8051;50.820;4.884;2023-04-25T04:30:41;26.17;;;23.27;;
15905;SDS011;8051;50.820;4.884;2023-04-25T04:33:13;30.63;;;23.57;;
15905;SDS011;8051;50.820;4.884;2023-04-25T04:35:41;36.57;;;22.70;;
15905;SDS011;8051;50.820;4.884;2023-04-25T04:38:08;39.50;;;21.60;;
15905;SDS011;8051;50.820;4.884;2023-04-25T04:40:36;40.33;;;24.27;;
15905;SDS011;8051;50.820;4.884;2023-04-25T04:43:03;27.43;;;23.03;;
15905;SDS011;8051;50.820;4.884;2023-04-25T04:45:31;27.27;;;22.40;;
15905;SDS011;8051;50.820;4.884;2023-04-25T04:47:58;36.67;;;21.70;;
15905;SDS011;8051;50.820;4.884;2023-04-25T04:50:27;29.90;;;20.90;;
15905;SDS011;8051;50.820;4.884;2023-04-25T04:52:57;26.93;;;20.70;;
15905;SDS011;8051;50.820;4.884;2023-04-25T04:55:25;27.17;;;20.77;;
15905;SDS011;8051;50.820;4.884;2023-04-25T04:57:52;25.77;;;20.60;;
15905;SDS011;8051;50.820;4.884;2023-04-25T05:00:20;21.67;;;19.53;;
15905;SDS011;8051;50.820;4.884;2023-04-25T05:02:48;32.30;;;20.97;;
15905;SDS011;8051;50.820;4.884;2023-04-25T05:05:15;37.03;;;21.60;;
15905;SDS011;8051;50.820;4.884;2023-04-25T05:07:44;28.43;;;21.17;;
15905;SDS011;8051;50.820;4.884;2023-04-25T05:10:12;28.03;;;21.03;;
15905;SDS011;8051;50.820;4.884;2023-04-25T05:12:39;34.90;;;23.07;;
15905;SDS011;8051;50.820;4.884;2023-04-25T05:15:07;28.87;;;22.03;;
15905;SDS011;8051;50.820;4.884;2023-04-25T05:17:35;28.90;;;20.90;;
15905;SDS011;8051;50.820;4.884;2023-04-25T05:20:02;29.03;;;21.70;;
15905;SDS011;8051;50.820;4.884;2023-04-25T05:22:32;32.70;;;21.50;;
15905;SDS011;8051;50.820;4.884;2023-04-25T05:25:01;32.30;;;21.07;;
15905;SDS011;8051;50.820;4.884;2023-04-25T05:27:28;35.53;;;22.17;;
15905;SDS011;8051;50.820;4.884;2023-04-25T05:29:56;31.37;;;22.37;;
15905;SDS011;8051;50.820;4.884;2023-04-25T05:32:23;29.07;;;21.97;;
15905;SDS011;8051;50.820;4.884;2023-04-25T05:34:51;29.47;;;21.47;;
15905;SDS011;8051;50.820;4.884;2023-04-25T05:37:18;26.50;;;21.17;;
15905;SDS011;8051;50.820;4.884;2023-04-25T05:39:46;32.27;;;21.20;;
15905;SDS011;8051;50.820;4.884;2023-04-25T05:42:15;29.23;;;21.20;;
15905;SDS011;8051;50.820;4.884;2023-04-25T05:44:42;31.40;;;21.87;;
15905;SDS011;8051;50.820;4.884;2023-04-25T05:47:10;27.10;;;22.80;;
15905;SDS011;8051;50.820;4.884;2023-04-25T05:49:37;31.00;;;23.40;;
15905;SDS011;8051;50.820;4.884;2023-04-25T05:52:04;27.97;;;22.53;;
15905;SDS011;8051;50.820;4.884;2023-04-25T05:54:32;28.53;;;23.63;;
15905;SDS011;8051;50.820;4.884;2023-04-25T05:56:59;27.20;;;23.10;;
15905;SDS011;8051;50.820;4.884;2023-04-25T05:59:29;27.93;;;24.17;;
15905;SDS011;8051;50.820;4.884;2023-04-25T06:01:57;34.33;;;22.67;;
15905;SDS011;8051;50.820;4.884;2023-04-25T06:04:24;34.80;;;22.60;;
15905;SDS011;8051;50.820;4.884;2023-04-25T06:06:52;26.83;;;24.07;;
15905;SDS011;8051;50.820;4.884;2023-04-25T06:09:20;31.70;;;24.33;;
15905;SDS011;8051;50.820;4.884;2023-04-25T06:11:47;32.03;;;24.27;;
15905;SDS011;8051;50.820;4.884;2023-04-25T06:14:15;29.67;;;23.80;;
15905;SDS011;8051;50.820;4.884;2023-04-25T06:16:43;25.77;;;23.03;;
15905;SDS011;8051;50.820;4.884;2023-04-25T06:19:11;25.50;;;22.80;;
15905;SDS011;8051;50.820;4.884;2023-04-25T06:21:38;27.50;;;22.27;;
15905;SDS011;8051;50.820;4.884;2023-04-25T06:24:06;24.77;;;22.43;;
15905;SDS011;8051;50.820;4.884;2023-04-25T06:26:34;31.97;;;23.07;;
15905;SDS011;8051;50.820;4.884;2023-04-25T06:29:01;24.67;;;22.10;;
15905;SDS011;8051;50.820;4.884;2023-04-25T06:31:28;25.33;;;22.83;;
15905;SDS011;8051;50.820;4.884;2023-04-25T06:33:59;29.30;;;23.17;;
15905;SDS011;8051;50.820;4.884;2023-04-25T06:36:26;27.50;;;23.37;;
15905;SDS011;8051;50.820;4.884;2023-04-25T06:38:54;29.70;;;23.73;;
15905;SDS011;8051;50.820;4.884;2023-04-25T06:41:21;27.40;;;24.00;;
15905;SDS011;8051;50.820;4.884;2023-04-25T06:43:48;29.87;;;23.10;;
15905;SDS011;8051;50.820;4.884;2023-04-25T06:46:15;30.07;;;21.27;;
15905;SDS011;8051;50.820;4.884;2023-04-25T06:48:43;26.57;;;23.17;;
15905;SDS011;8051;50.820;4.884;2023-04-25T06:51:12;28.67;;;22.77;;
15905;SDS011;8051;50.820;4.884;2023-04-25T06:53:39;32.73;;;27.10;;
15905;SDS011;8051;50.820;4.884;2023-04-25T06:56:07;30.13;;;24.13;;
15905;SDS011;8051;50.820;4.884;2023-04-25T06:58:35;26.00;;;23.33;;
15905;SDS011;8051;50.820;4.884;2023-04-25T07:01:02;37.27;;;23.77;;
15905;SDS011;8051;50.820;4.884;2023-04-25T07:03:30;25.77;;;23.10;;
15905;SDS011;8051;50.820;4.884;2023-04-25T07:05:57;26.90;;;23.90;;
15905;SDS011;8051;50.820;4.884;2023-04-25T07:08:27;27.70;;;23.83;;
15905;SDS011;8051;50.820;4.884;2023-04-25T07:10:55;27.93;;;24.07;;
15905;SDS011;8051;50.820;4.884;2023-04-25T07:13:23;31.50;;;24.57;;
15905;SDS011;8051;50.820;4.884;2023-04-25T07:15:50;28.33;;;25.40;;
15905;SDS011;8051;50.820;4.884;2023-04-25T07:18:17;27.13;;;24.63;;
15905;SDS011;8051;50.820;4.884;2023-04-25T07:20:45;28.13;;;25.43;;
15905;SDS011;8051;50.820;4.884;2023-04-25T07:23:12;31.93;;;25.33;;
15905;SDS011;8051;50.820;4.884;2023-04-25T07:25:41;29.90;;;23.37;;
15905;SDS011;8051;50.820;4.884;2023-04-25T07:28:08;26.37;;;23.43;;
15905;SDS011;8051;50.820;4.884;2023-04-25T07:30:36;29.50;;;23.70;;
15905;SDS011;8051;50.820;4.884;2023-04-25T07:33:03;34.13;;;23.93;;
15905;SDS011;8051;50.820;4.884;2023-04-25T07:35:31;32.00;;;24.10;;
15905;SDS011;8051;50.820;4.884;2023-04-25T07:37:58;28.47;;;25.33;;
15905;SDS011;8051;50.820;4.884;2023-04-25T07:40:26;29.67;;;24.13;;
15905;SDS011;8051;50.820;4.884;2023-04-25T07:42:55;25.40;;;22.83;;
15905;SDS011;8051;50.820;4.884;2023-04-25T07:45:22;24.33;;;20.93;;
15905;SDS011;8051;50.820;4.884;2023-04-25T07:47:50;28.97;;;22.33;;
15905;SDS011;8051;50.820;4.884;2023-04-25T07:50:17;25.70;;;23.43;;
15905;SDS011;8051;50.820;4.884;2023-04-25T07:52:45;29.23;;;25.40;;
15905;SDS011;8051;50.820;4.884;2023-04-25T07:55:13;25.97;;;23.77;;
15905;SDS011;8051;50.820;4.884;2023-04-25T07:57:40;25.80;;;23.13;;
15905;SDS011;8051;50.820;4.884;2023-04-25T08:00:10;26.10;;;23.63;;
15905;SDS011;8051;50.820;4.884;2023-04-25T08:02:38;25.33;;;22.60;;
15905;SDS011;8051;50.820;4.884;2023-04-25T08:05:06;21.70;;;19.57;;
15905;SDS011;8051;50.820;4.884;2023-04-25T08:07:37;29.77;;;22.13;;
15905;SDS011;8051;50.820;4.884;2023-04-25T08:10:06;24.23;;;21.93;;
15905;SDS011;8051;50.820;4.884;2023-04-25T08:12:34;29.90;;;21.37;;
15905;SDS011;8051;50.820;4.884;2023-04-25T08:15:02;24.40;;;21.90;;
15905;SDS011;8051;50.820;4.884;2023-04-25T08:17:32;23.80;;;21.63;;
15905;SDS011;8051;50.820;4.884;2023-04-25T08:19:59;33.63;;;21.77;;
15905;SDS011;8051;50.820;4.884;2023-04-25T08:22:29;23.87;;;21.33;;
15905;SDS011;8051;50.820;4.884;2023-04-25T08:24:57;22.60;;;20.53;;
15905;SDS011;8051;50.820;4.884;2023-04-25T08:27:24;24.30;;;22.00;;
15905;SDS011;8051;50.820;4.884;2023-04-25T08:29:52;20.73;;;18.70;;
15905;SDS011;8051;50.820;4.884;2023-04-25T08:32:19;22.13;;;19.97;;
15905;SDS011;8051;50.820;4.884;2023-04-25T08:34:49;20.47;;;18.40;;
15905;SDS011;8051;50.820;4.884;2023-04-25T08:37:19;20.53;;;18.57;;
15905;SDS011;8051;50.820;4.884;2023-04-25T08:39:47;22.10;;;19.83;;
15905;SDS011;8051;50.820;4.884;2023-04-25T08:42:17;21.07;;;19.07;;
15905;SDS011;8051;50.820;4.884;2023-04-25T08:44:45;20.47;;;18.63;;
15905;SDS011;8051;50.820;4.884;2023-04-25T08:47:15;20.50;;;19.03;;
15905;SDS011;8051;50.820;4.884;2023-04-25T08:49:45;22.63;;;20.20;;
15905;SDS011;8051;50.820;4.884;2023-04-25T08:52:14;23.93;;;21.77;;
15905;SDS011;8051;50.820;4.884;2023-04-25T08:54:43;23.10;;;20.73;;
15905;SDS011;8051;50.820;4.884;2023-04-25T08:57:14;28.17;;;19.77;;
15905;SDS011;8051;50.820;4.884;2023-04-25T08:59:43;22.97;;;20.83;;
15905;SDS011;8051;50.820;4.884;2023-04-25T09:02:12;23.53;;;21.33;;
15905;SDS011;8051;50.820;4.884;2023-04-25T09:04:42;22.17;;;19.90;;
15905;SDS011;8051;50.820;4.884;2023-04-25T09:07:10;21.20;;;19.53;;
15905;SDS011;8051;50.820;4.884;2023-04-25T09:09:42;21.73;;;19.23;;
15905;SDS011;8051;50.820;4.884;2023-04-25T09:12:09;20.30;;;18.37;;
15905;SDS011;8051;50.820;4.884;2023-04-25T09:14:37;17.83;;;16.27;;
15905;SDS011;8051;50.820;4.884;2023-04-25T09:17:04;19.37;;;17.43;;
15905;SDS011;8051;50.820;4.884;2023-04-25T09:19:33;18.30;;;16.70;;
15905;SDS011;8051;50.820;4.884;2023-04-25T09:22:03;18.07;;;16.77;;
15905;SDS011;8051;50.820;4.884;2023-04-25T09:24:31;18.03;;;16.20;;
15905;SDS011;8051;50.820;4.884;2023-04-25T09:27:01;17.53;;;15.83;;
15905;SDS011;8051;50.820;4.884;2023-04-25T09:29:30;18.70;;;16.73;;
15905;SDS011;8051;50.820;4.884;2023-04-25T09:32:11;17.83;;;16.40;;
15905;SDS011;8051;50.820;4.884;2023-04-25T09:34:42;17.60;;;14.97;;
15905;SDS011;8051;50.820;4.884;2023-04-25T09:37:16;20.70;;;16.47;;
15905;SDS011;8051;50.820;4.884;2023-04-25T09:39:44;19.13;;;17.33;;
15905;SDS011;8051;50.820;4.884;2023-04-25T09:42:13;19.47;;;17.60;;
15905;SDS011;8051;50.820;4.884;2023-04-25T09:44:42;20.20;;;18.43;;
15905;SDS011;8051;50.820;4.884;2023-04-25T09:47:11;20.10;;;17.97;;
15905;SDS011;8051;50.820;4.884;2023-04-25T09:49:40;18.93;;;16.43;;
15905;SDS011;8051;50.820;4.884;2023-04-25T09:52:09;18.13;;;16.70;;
15905;SDS011;8051;50.820;4.884;2023-04-25T09:54:39;19.63;;;17.70;;
15905;SDS011;8051;50.820;4.884;2023-04-25T09:57:09;18.50;;;16.67;;
15905;SDS011;8051;50.820;4.884;2023-04-25T09:59:41;21.60;;;17.67;;
15905;SDS011;8051;50.820;4.884;2023-04-25T10:02:10;20.07;;;18.33;;
15905;SDS011;8051;50.820;4.884;2023-04-25T10:04:39;25.17;;;19.30;;
15905;SDS011;8051;50.820;4.884;2023-04-25T10:07:08;22.03;;;20.10;;
15905;SDS011;8051;50.820;4.884;2023-04-25T10:09:36;21.90;;;19.73;;
15905;SDS011;8051;50.820;4.884;2023-04-25T10:12:05;22.13;;;19.97;;
15905;SDS011;8051;50.820;4.884;2023-04-25T10:14:34;20.73;;;19.13;;
15905;SDS011;8051;50.820;4.884;2023-04-25T10:17:03;20.43;;;18.57;;
15905;SDS011;8051;50.820;4.884;2023-04-25T10:19:31;18.27;;;16.67;;
15905;SDS011;8051;50.820;4.884;2023-04-25T10:22:03;18.83;;;17.10;;
15905;SDS011;8051;50.820;4.884;2023-04-25T10:24:34;18.67;;;17.20;;
15905;SDS011;8051;50.820;4.884;2023-04-25T10:27:02;18.13;;;16.40;;
15905;SDS011;8051;50.820;4.884;2023-04-25T10:29:31;18.03;;;16.53;;
15905;SDS011;8051;50.820;4.884;2023-04-25T10:31:59;18.20;;;16.60;;
15905;SDS011;8051;50.820;4.884;2023-04-25T10:34:39;20.03;;;18.33;;
15905;SDS011;8051;50.820;4.884;2023-04-25T10:37:10;17.30;;;16.07;;
15905;SDS011;8051;50.820;4.884;2023-04-25T10:39:38;18.37;;;16.57;;
15905;SDS011;8051;50.820;4.884;2023-04-25T10:42:07;18.17;;;16.33;;
15905;SDS011;8051;50.820;4.884;2023-04-25T10:44:36;17.10;;;15.87;;
15905;SDS011;8051;50.820;4.884;2023-04-25T10:47:06;17.63;;;16.53;;
15905;SDS011;8051;50.820;4.884;2023-04-25T10:49:35;17.97;;;16.30;;
15905;SDS011;8051;50.820;4.884;2023-04-25T10:52:12;13.50;;;12.30;;
15905;SDS011;8051;50.820;4.884;2023-04-25T10:54:52;13.27;;;12.17;;
15905;SDS011;8051;50.820;4.884;2023-04-25T10:57:27;13.80;;;12.67;;
15905;SDS011;8051;50.820;4.884;2023-04-25T10:59:59;11.33;;;10.23;;
15905;SDS011;8051;50.820;4.884;2023-04-25T11:02:30;13.60;;;11.40;;
15905;SDS011;8051;50.820;4.884;2023-04-25T11:04:58;12.43;;;11.47;;
15905;SDS011;8051;50.820;4.884;2023-04-25T11:07:28;10.80;;;10.20;;
15905;SDS011;8051;50.820;4.884;2023-04-25T11:10:04;11.50;;;10.60;;
15905;SDS011;8051;50.820;4.884;2023-04-25T11:12:32;9.00;;;8.43;;
15905;SDS011;8051;50.820;4.884;2023-04-25T11:15:00;8.93;;;8.03;;
15905;SDS011;8051;50.820;4.884;2023-04-25T11:17:29;9.47;;;8.73;;
15905;SDS011;8051;50.820;4.884;2023-04-25T11:19:56;9.87;;;8.97;;
15905;SDS011;8051;50.820;4.884;2023-04-25T11:22:24;9.60;;;9.00;;
15905;SDS011;8051;50.820;4.884;2023-04-25T11:24:54;9.87;;;9.20;;
15905;SDS011;8051;50.820;4.884;2023-04-25T11:27:21;9.87;;;9.23;;
15905;SDS011;8051;50.820;4.884;2023-04-25T11:29:49;9.80;;;8.60;;
15905;SDS011;8051;50.820;4.884;2023-04-25T11:32:17;8.47;;;7.90;;
15905;SDS011;8051;50.820;4.884;2023-04-25T11:34:46;8.63;;;8.10;;
15905;SDS011;8051;50.820;4.884;2023-04-25T11:37:13;8.43;;;7.83;;
15905;SDS011;8051;50.820;4.884;2023-04-25T11:39:45;8.60;;;7.83;;
15905;SDS011;8051;50.820;4.884;2023-04-25T11:42:14;9.07;;;8.20;;
15905;SDS011;8051;50.820;4.884;2023-04-25T11:44:41;9.10;;;8.40;;
15905;SDS011;8051;50.820;4.884;2023-04-25T11:47:09;9.27;;;8.63;;
15905;SDS011;8051;50.820;4.884;2023-04-25T11:49:36;9.80;;;8.80;;
15905;SDS011;8051;50.820;4.884;2023-04-25T11:52:05;10.67;;;9.77;;
15905;SDS011;8051;50.820;4.884;2023-04-25T11:54:35;10.37;;;9.50;;
15905;SDS011;8051;50.820;4.884;2023-04-25T11:57:03;11.07;;;10.17;;
15905;SDS011;8051;50.820;4.884;2023-04-25T11:59:32;11.67;;;10.77;;
15905;SDS011;8051;50.820;4.884;2023-04-25T12:02:00;10.73;;;9.50;;
15905;SDS011;8051;50.820;4.884;2023-04-25T12:04:29;10.87;;;9.33;;
15905;SDS011;8051;50.820;4.884;2023-04-25T12:06:58;8.70;;;8.00;;
15905;SDS011;8051;50.820;4.884;2023-04-25T12:09:28;10.13;;;9.27;;
15905;SDS011;8051;50.820;4.884;2023-04-25T12:11:57;8.20;;;7.50;;
15905;SDS011;8051;50.820;4.884;2023-04-25T12:14:28;7.93;;;6.97;;
15905;SDS011;8051;50.820;4.884;2023-04-25T12:16:59;8.47;;;7.60;;
15905;SDS011;8051;50.820;4.884;2023-04-25T12:19:31;10.80;;;9.90;;
15905;SDS011;8051;50.820;4.884;2023-04-25T12:21:59;11.53;;;10.70;;
15905;SDS011;8051;50.820;4.884;2023-04-25T12:24:28;9.90;;;9.20;;
15905;SDS011;8051;50.820;4.884;2023-04-25T12:26:58;10.63;;;9.47;;
15905;SDS011;8051;50.820;4.884;2023-04-25T12:29:27;10.57;;;9.77;;
15905;SDS011;8051;50.820;4.884;2023-04-25T12:31:55;11.47;;;10.57;;
15905;SDS011;8051;50.820;4.884;2023-04-25T12:34:24;10.97;;;10.20;;
15905;SDS011;8051;50.820;4.884;2023-04-25T12:36:52;13.80;;;12.37;;
15905;SDS011;8051;50.820;4.884;2023-04-25T12:39:20;11.07;;;10.10;;
15905;SDS011;8051;50.820;4.884;2023-04-25T12:41:49;10.87;;;9.87;;
15905;SDS011;8051;50.820;4.884;2023-04-25T12:44:17;11.13;;;10.37;;
15905;SDS011;8051;50.820;4.884;2023-04-25T12:46:44;12.60;;;11.30;;
15905;SDS011;8051;50.820;4.884;2023-04-25T12:49:13;11.03;;;10.33;;
15905;SDS011;8051;50.820;4.884;2023-04-25T12:51:42;11.40;;;10.43;;
15905;SDS011;8051;50.820;4.884;2023-04-25T12:54:09;10.07;;;9.47;;
15905;SDS011;8051;50.820;4.884;2023-04-25T12:56:37;11.67;;;10.50;;
15905;SDS011;8051;50.820;4.884;2023-04-25T12:59:04;11.50;;;10.70;;
15905;SDS011;8051;50.820;4.884;2023-04-25T13:01:32;12.13;;;11.00;;
15905;SDS011;8051;50.820;4.884;2023-04-25T13:03:59;11.93;;;10.93;;
15905;SDS011;8051;50.820;4.884;2023-04-25T13:06:27;11.20;;;10.47;;
15905;SDS011;8051;50.820;4.884;2023-04-25T13:08:57;10.60;;;9.63;;
15905;SDS011;8051;50.820;4.884;2023-04-25T13:11:24;9.00;;;8.10;;
15905;SDS011;8051;50.820;4.884;2023-04-25T13:13:52;10.33;;;9.43;;
15905;SDS011;8051;50.820;4.884;2023-04-25T13:16:20;9.20;;;8.37;;
15905;SDS011;8051;50.820;4.884;2023-04-25T13:18:47;10.07;;;9.27;;
15905;SDS011;8051;50.820;4.884;2023-04-25T13:21:15;8.90;;;8.00;;
15905;SDS011;8051;50.820;4.884;2023-04-25T13:23:42;8.10;;;7.40;;
15905;SDS011;8051;50.820;4.884;2023-04-25T13:26:13;8.87;;;8.27;;
15905;SDS011;8051;50.820;4.884;2023-04-25T13:28:40;9.10;;;8.40;;
15905;SDS011;8051;50.820;4.884;2023-04-25T13:31:08;8.80;;;8.10;;
15905;SDS011;8051;50.820;4.884;2023-04-25T13:33:35;9.33;;;8.63;;
15905;SDS011;8051;50.820;4.884;2023-04-25T13:36:03;10.90;;;10.17;;
15905;SDS011;8051;50.820;4.884;2023-04-25T13:38:31;9.17;;;8.47;;
15905;SDS011;8051;50.820;4.884;2023-04-25T13:40:58;10.10;;;9.30;;
15905;SDS011;8051;50.820;4.884;2023-04-25T13:43:27;10.43;;;9.63;;
15905;SDS011;8051;50.820;4.884;2023-04-25T13:45:54;10.00;;;9.10;;
15905;SDS011;8051;50.820;4.884;2023-04-25T13:48:23;10.30;;;9.23;;
15905;SDS011;8051;50.820;4.884;2023-04-25T13:50:51;10.93;;;9.90;;
15905;SDS011;8051;50.820;4.884;2023-04-25T13:53:18;11.90;;;11.10;;
15905;SDS011;8051;50.820;4.884;2023-04-25T13:55:46;10.43;;;9.43;;
15905;SDS011;8051;50.820;4.884;2023-04-25T13:58:13;12.07;;;11.10;;
15905;SDS011;8051;50.820;4.884;2023-04-25T14:00:42;13.10;;;12.03;;
15905;SDS011;8051;50.820;4.884;2023-04-25T14:03:11;12.00;;;11.20;;
15905;SDS011;8051;50.820;4.884;2023-04-25T14:05:38;11.30;;;10.60;;
15905;SDS011;8051;50.820;4.884;2023-04-25T14:08:06;10.60;;;9.87;;
15905;SDS011;8051;50.820;4.884;2023-04-25T14:10:34;11.10;;;10.30;;
15905;SDS011;8051;50.820;4.884;2023-04-25T14:13:02;10.57;;;9.87;;
15905;SDS011;8051;50.820;4.884;2023-04-25T14:15:31;10.90;;;10.10;;
15905;SDS011;8051;50.820;4.884;2023-04-25T14:18:00;10.43;;;9.80;;
15905;SDS011;8051;50.820;4.884;2023-04-25T14:20:28;10.47;;;9.93;;
15905;SDS011;8051;50.820;4.884;2023-04-25T14:22:56;10.73;;;9.73;;
15905;SDS011;8051;50.820;4.884;2023-04-25T14:25:24;11.33;;;10.50;;
15905;SDS011;8051;50.820;4.884;2023-04-25T14:27:52;11.13;;;10.50;;
15905;SDS011;8051;50.820;4.884;2023-04-25T14:30:20;7.90;;;7.40;;
15905;SDS011;8051;50.820;4.884;2023-04-25T14:32:48;10.27;;;9.70;;
15905;SDS011;8051;50.820;4.884;2023-04-25T14:35:17;11.80;;;10.80;;
15905;SDS011;8051;50.820;4.884;2023-04-25T14:37:45;9.47;;;8.87;;
15905;SDS011;8051;50.820;4.884;2023-04-25T14:40:13;7.80;;;7.20;;
15905;SDS011;8051;50.820;4.884;2023-04-25T14:42:42;10.43;;;9.70;;
15905;SDS011;8051;50.820;4.884;2023-04-25T14:45:09;8.70;;;8.20;;